^^
Station Historical Data
Daily Summary for July 8, 2017 Units:  Metric    English   Both
« Previous Day
Next Day »
Daily Weekly Monthly Yearly Custom
  High: Low: Average:
Temperature: -17.8 °C 11.1 °C 17 °C
Dew Point: -17.8 °C -3.4 °C -1.8 °C
Humidity: Humidity% 16% 28%
Wind Speed: 0km/h 0km/h 2.6km/h
Wind Gust: 0km/h - -
Wind- - WSW
Pressure: 0 hPa 1013.1 hPa -
Precipitation: 0 mm    
Historical Graphs
 
 
Tabular Data for July 8, 2017
Time Temperature Dew Point Pressure Wind Wind Speed Wind Gust Humidity Rainfall Rate (Hourly) solar Conditions
-17.8 °C -17.8 °C 0 hPa Calm     Humidity% 0 mm SolarRadiationWatts/m^2 W/m2 Conditions
00:00 15.4 °C -3 °C 1018.2 hPa Calm     28% 0 mm 0.0 W/m2
00:05 14.9 °C -3 °C 1018.2 hPa Calm     29% 0 mm 0.0 W/m2
00:11 14.8 °C -3.1 °C 1018.2 hPa Calm     29% 0 mm 0.0 W/m2
00:25 14.2 °C -3.1 °C 1017.8 hPa Calm     30% 0 mm 0.0 W/m2
00:30 14.1 °C -3.2 °C 1017.8 hPa Calm     30% 0 mm 0.0 W/m2
00:36 13.8 °C -3 °C 1017.8 hPa Calm     31% 0 mm 0.0 W/m2
00:41 13.6 °C -3.2 °C 1017.8 hPa Calm     31% 0 mm 0.0 W/m2
00:51 13.6 °C -2.8 °C 1017.8 hPa Calm     32% 0 mm 0.0 W/m2
00:56 13.6 °C -2.8 °C 1017.8 hPa Calm     32% 0 mm 0.0 W/m2
01:01 13.8 °C -2.6 °C 1017.8 hPa Calm     32% 0 mm 0.0 W/m2
01:07 13.9 °C -2.5 °C 1017.8 hPa Calm     32% 0 mm 0.0 W/m2
01:12 14 °C -2.4 °C 1017.8 hPa Calm     32% 0 mm 0.0 W/m2
01:17 14.1 °C -2.4 °C 1017.8 hPa Calm     32% 0 mm 0.0 W/m2
01:22 14.2 °C -2.3 °C 1017.8 hPa Calm     32% 0 mm 0.0 W/m2
01:27 14.3 °C -2.2 °C 1017.5 hPa Calm     32% 0 mm 0.0 W/m2
01:32 14.6 °C -2.3 °C 1017.5 hPa Calm     31% 0 mm 0.0 W/m2
01:37 14.7 °C -2.3 °C 1017.5 hPa Calm   11.3 km/h 31% 0 mm 0.0 W/m2
01:42 14.8 °C -2.2 °C 1017.5 hPa Calm     31% 0 mm 0.0 W/m2
01:47 14.7 °C -2.3 °C 1017.5 hPa Calm     31% 0 mm 0.0 W/m2
01:53 14.5 °C -2.4 °C 1017.5 hPa Calm     31% 0 mm 0.0 W/m2
01:58 14.4 °C -2.5 °C 1017.5 hPa Calm     31% 0 mm 0.0 W/m2
02:04 13.9 °C -3 °C 1017.5 hPa Calm     31% 0 mm 0.0 W/m2
02:09 13.3 °C -3.1 °C 1017.5 hPa Calm     32% 0 mm 0.0 W/m2
02:14 12.4 °C -3.4 °C 1017.5 hPa Calm     33% 0 mm 0.0 W/m2
02:20 12.3 °C -2.7 °C 1017.5 hPa Calm     35% 0 mm 0.0 W/m2
02:24 13.5 °C -2.1 °C 1017.5 hPa Calm     34% 0 mm 0.0 W/m2
02:30 14.1 °C -2.4 °C 1017.5 hPa Calm     32% 0 mm 0.0 W/m2
02:36 14.6 °C -2.3 °C 1017.5 hPa Calm     31% 0 mm 0.0 W/m2
02:41 15.1 °C -2.4 °C 1017.5 hPa Calm     30% 0 mm 0.0 W/m2
02:46 15.3 °C -2.2 °C 1017.5 hPa Calm     30% 0 mm 0.0 W/m2
02:51 15.4 °C -2.6 °C 1017.8 hPa Calm     29% 0 mm 0.0 W/m2
03:01 13.9 °C -2.5 °C 1017.8 hPa Calm     32% 0 mm 0.0 W/m2
03:07 14 °C -2.4 °C 1017.8 hPa Calm     32% 0 mm 0.0 W/m2
03:12 14.2 °C -2.7 °C 1017.8 hPa Calm     31% 0 mm 0.0 W/m2
03:17 14.7 °C -2.3 °C 1017.8 hPa Calm     31% 0 mm 0.0 W/m2
03:22 14.9 °C -2.5 °C 1017.8 hPa Calm     30% 0 mm 0.0 W/m2
03:27 14.6 °C -2.8 °C 1017.8 hPa Calm     30% 0 mm 0.0 W/m2
03:32 14.1 °C -2.8 °C 1017.8 hPa Calm     31% 0 mm 0.0 W/m2
03:37 13.6 °C -2.8 °C 1017.8 hPa Calm     32% 0 mm 0.0 W/m2
03:42 13.6 °C -2.4 °C 1017.8 hPa Calm     33% 0 mm 0.0 W/m2
03:48 13.6 °C -2.4 °C 1017.8 hPa Calm     33% 0 mm 0.0 W/m2
03:53 13.6 °C -2.8 °C 1017.5 hPa Calm     32% 0 mm 0.0 W/m2
03:58 13.6 °C -2.4 °C 1017.5 hPa Calm     33% 0 mm 0.0 W/m2
04:03 13.9 °C -2.5 °C 1017.8 hPa Calm     32% 0 mm 0.0 W/m2
04:08 13.8 °C -2.6 °C 1017.5 hPa Calm     32% 0 mm 0.0 W/m2
04:13 13.4 °C -3 °C 1017.5 hPa Calm     32% 0 mm 0.0 W/m2
04:19 13.1 °C -2.8 °C 1017.5 hPa Calm     33% 0 mm 0.0 W/m2
04:24 12.7 °C -2.8 °C 1017.5 hPa Calm     34% 0 mm 0.0 W/m2
04:34 12.6 °C -2.9 °C 1017.2 hPa Calm     34% 0 mm 0.0 W/m2
04:45 13.3 °C -2.6 °C 1017.2 hPa Calm     33% 0 mm 0.0 W/m2
04:50 13.1 °C -2.8 °C 1017.2 hPa Calm     33% 0 mm 0.0 W/m2
04:56 13 °C -2.9 °C 1017.2 hPa Calm     33% 0 mm 0.0 W/m2
05:02 13.1 °C -2.8 °C 1017.2 hPa Calm     33% 0 mm 0.0 W/m2
05:07 13.1 °C -2.8 °C 1017.2 hPa Calm     33% 0 mm 0.0 W/m2
05:12 13.1 °C -2.8 °C 1017.2 hPa Calm     33% 0 mm 0.0 W/m2
05:17 12.9 °C -3 °C 1017.2 hPa Calm     33% 0 mm 0.0 W/m2
05:22 12.8 °C -3.1 °C 1017.5 hPa Calm     33% 0 mm 0.0 W/m2
05:28 12.6 °C -2.9 °C 1017.5 hPa Calm     34% 0 mm 0.0 W/m2
05:33 12.2 °C -3.2 °C 1017.5 hPa Calm     34% 0 mm 0.0 W/m2
05:43 12.3 °C -2.7 °C 1017.5 hPa Calm     35% 0 mm 0.0 W/m2
05:53 12.5 °C -2.9 °C 1017.5 hPa Calm     34% 0 mm 0.0 W/m2
05:58 12.2 °C -2.8 °C 1017.5 hPa Calm     35% 0 mm 0.0 W/m2
06:04 12.1 °C -2.5 °C 1017.5 hPa Calm     36% 0 mm 0.0 W/m2
06:10 12.2 °C -2.4 °C 1017.5 hPa Calm     36% 0 mm 0.0 W/m2
06:19 11.9 °C -2.7 °C 1017.5 hPa Calm     36% 0 mm 0.0 W/m2
06:24 11.9 °C -2.7 °C 1017.5 hPa Calm     36% 0 mm 0.0 W/m2
06:29 11.9 °C -2.7 °C 1017.5 hPa Calm     36% 0 mm 0.0 W/m2
06:35 11.8 °C -2.8 °C 1017.5 hPa Calm     36% 0 mm 0.0 W/m2
06:40 11.7 °C -2.5 °C 1017.5 hPa Calm     37% 0 mm 0.0 W/m2
06:46 11.5 °C -2.7 °C 1017.5 hPa Calm     37% 0 mm 7.0 W/m2
06:52 11.3 °C -2.9 °C 1017.5 hPa Calm     37% 0 mm 11.0 W/m2
06:59 11.1 °C -2.7 °C 1017.8 hPa Calm     38% 0 mm 12.0 W/m2
07:08 11.1 °C -2.7 °C 1017.8 hPa Calm     38% 0 mm 18.0 W/m2
07:21 11.9 °C -2.7 °C 1017.8 hPa Calm     36% 0 mm 23.0 W/m2
07:26 11.9 °C -2.7 °C 1017.8 hPa Calm     36% 0 mm 26.0 W/m2
07:56 13.5 °C -2.1 °C 1017.8 hPa Calm     34% 0 mm 155.0 W/m2
08:09 15.1 °C -1.9 °C 1017.8 hPa Calm     31% 0 mm 209.0 W/m2
08:21 15.9 °C -1.7 °C 1017.8 hPa Calm     30% 0 mm 239.0 W/m2
08:32 16.6 °C -2 °C 1017.8 hPa Calm     28% 0 mm 272.0 W/m2
08:42 16.7 °C -1.9 °C 1017.8 hPa North 3.2 km/h 6.4 km/h 28% 0 mm 295.0 W/m2
09:24 18.1 °C -1.7 °C 1018.2 hPa North 6.4 km/h 11.3 km/h 26% 0 mm 397.0 W/m2
09:38 18.3 °C -1.5 °C 1018.2 hPa Calm   6.4 km/h 26% 0 mm 429.0 W/m2
09:49 18.7 °C -1.2 °C 1018.2 hPa Calm   8 km/h 26% 0 mm 450.0 W/m2
10:02 19.3 °C -1.2 °C 1018.2 hPa Calm   14.5 km/h 25% 0 mm 478.0 W/m2
10:13 19.7 °C -0.9 °C 1018.2 hPa North 6.4 km/h 11.3 km/h 25% 0 mm 496.0 W/m2
10:23 20.1 °C -0.5 °C 1017.8 hPa North 9.7 km/h 11.3 km/h 25% 0 mm 512.0 W/m2
10:33 20.3 °C -0.9 °C 1017.8 hPa North 7.9 km/h 16.1 km/h 24% 0 mm 524.0 W/m2
10:52 20.9 °C -0.4 °C 1017.5 hPa North 9.7 km/h 17.7 km/h 24% 0 mm 548.0 W/m2
11:03 21.1 °C -0.8 °C 1017.5 hPa North 6.4 km/h 20.9 km/h 23% 0 mm 559.0 W/m2
11:13 21.4 °C -0.6 °C 1017.5 hPa Calm   16.1 km/h 23% 0 mm 566.0 W/m2
11:23 22 °C -0.7 °C 1017.2 hPa North 9.7 km/h 19.3 km/h 22% 0 mm 575.0 W/m2
11:34 22.2 °C -0.5 °C 1016.8 hPa North 14.3 km/h 24.1 km/h 22% 0 mm 580.0 W/m2
11:45 22.1 °C -0.6 °C 1016.8 hPa North 11.1 km/h 22.5 km/h 22% 0 mm 582.0 W/m2
11:59 22.3 °C -1.1 °C 1016.5 hPa Calm   20.9 km/h 21% 0 mm 585.0 W/m2
12:05 22.7 °C -1.4 °C 1016.1 hPa North 3.2 km/h 19.3 km/h 20% 0 mm 582.0 W/m2
12:20 22.9 °C -1.3 °C 1016.1 hPa North 9.7 km/h 17.7 km/h 20% 0 mm 578.0 W/m2
12:40 23.3 °C -1.6 °C 1015.8 hPa North 13 km/h 13 km/h 19% 0 mm 571.0 W/m2
12:53 23.6 °C -1.4 °C 1015.8 hPa North 6.4 km/h 11.3 km/h 19% 0 mm 557.0 W/m2
13:04 23.9 °C -1.1 °C 1015.5 hPa Calm   11.3 km/h 19% 0 mm 548.0 W/m2
13:14 24.4 °C -1.5 °C 1015.1 hPa Calm   12.9 km/h 18% 0 mm 536.0 W/m2
13:21 24.8 °C -1.1 °C 1014.8 hPa Calm   14.5 km/h 18% 0 mm 526.0 W/m2
13:37 25.1 °C -1.7 °C 1014.4 hPa Calm   1.6 km/h 17% 0 mm 510.0 W/m2
13:51 25.6 °C -1.3 °C 1014.1 hPa Calm     17% 0 mm 485.0 W/m2
14:05 25.8 °C -1.9 °C 1013.8 hPa North 9.7 km/h 11.3 km/h 16% 0 mm 457.0 W/m2
14:12 25.8 °C -1.9 °C 1013.8 hPa Calm   17.7 km/h 16% 0 mm 434.0 W/m2
14:28 25.9 °C -1.8 °C 1013.8 hPa NNW 14.3 km/h 20.9 km/h 16% 0 mm 413.0 W/m2
14:37 26.3 °C -1.5 °C 1013.4 hPa NNW 13 km/h 19.3 km/h 16% 0 mm 380.0 W/m2
14:52 26.4 °C -1.4 °C 1013.1 hPa NNW 19.5 km/h 22.5 km/h 16% 0 mm 345.0 W/m2
15:12 26.4 °C -1.4 °C 1013.1 hPa NW 11.1 km/h 20.9 km/h 16% 0 mm 308.0 W/m2
15:17 26.4 °C -1.4 °C 1013.4 hPa NW 16.3 km/h 22.5 km/h 16% 0 mm 279.0 W/m2
15:37 26.2 °C -0.8 °C 1013.4 hPa NW 16.3 km/h 29 km/h 17% 0 mm 239.0 W/m2
15:42 26.1 °C -0.9 °C 1013.4 hPa WNW 17.7 km/h 27.4 km/h 17% 0 mm 206.0 W/m2
15:57 26.1 °C -0.9 °C 1013.4 hPa NW 22.7 km/h 24.1 km/h 17% 0 mm 153.0 W/m2
16:18 25.8 °C -0.3 °C 1013.4 hPa WNW 13 km/h 20.9 km/h 18% 0 mm 102.0 W/m2
16:28 25.5 °C -0.6 °C 1013.4 hPa WNW 20.9 km/h 20.9 km/h 18% 0 mm 60.0 W/m2
16:45 25.1 °C -0.1 °C 1013.4 hPa WNW 7.9 km/h 16.1 km/h 19% 0 mm 25.0 W/m2
16:53 24.8 °C 0.3 °C 1013.4 hPa WNW 13 km/h 19.3 km/h 20% 0 mm 12.0 W/m2
16:54 24.9 °C -0.3 °C 1013.4 hPa WNW 17.7 km/h 17.7 km/h 19% 0 mm 14.0 W/m2
17:14 24.4 °C 0 °C 1013.8 hPa WNW 20.9 km/h 20.9 km/h 20% 0 mm 5.0 W/m2
17:23 24.1 °C 0.4 °C 1013.8 hPa WNW 7.9 km/h 11.3 km/h 21% 0 mm 0.0 W/m2
17:33 23.9 °C 0.9 °C 1013.8 hPa WNW 6.4 km/h 9.7 km/h 22% 0 mm 0.0 W/m2
17:48 23.3 °C 0.4 °C 1014.1 hPa WNW 4.7 km/h 6.4 km/h 22% 0 mm 0.0 W/m2
18:03 22.8 °C 0.6 °C 1014.1 hPa WNW 4.7 km/h 6.4 km/h 23% 0 mm 0.0 W/m2
18:19 22.3 °C 0.8 °C 1014.4 hPa Calm     24% 0 mm 0.0 W/m2
18:26 22.2 °C 0.7 °C 1014.4 hPa Calm     24% 0 mm 0.0 W/m2
18:29 22 °C 0.5 °C 1014.4 hPa Calm     24% 0 mm 0.0 W/m2
18:37 21.8 °C 0.3 °C 1014.4 hPa Calm     24% 0 mm 0.0 W/m2
18:45 21.5 °C 0.1 °C 1014.4 hPa Calm     24% 0 mm 0.0 W/m2
18:55 20.6 °C -0.1 °C 1014.4 hPa Calm     25% 0 mm 0.0 W/m2
19:08 19.7 °C 0.2 °C 1014.4 hPa Calm     27% 0 mm 0.0 W/m2
19:15 18.3 °C -1 °C 1014.8 hPa Calm     27% 0 mm 0.0 W/m2
19:30 17.7 °C -0.1 °C 1014.8 hPa Calm     30% 0 mm 0.0 W/m2
19:40 18.2 °C -0.6 °C 1015.1 hPa Calm     28% 0 mm 0.0 W/m2
19:46 18.3 °C -0.5 °C 1015.1 hPa WNW 3.2 km/h 4.8 km/h 28% 0 mm 0.0 W/m2
20:01 17.9 °C 0.1 °C 1015.1 hPa Calm     30% 0 mm 0.0 W/m2
20:17 17.1 °C -0.6 °C 1015.5 hPa Calm     30% 0 mm 0.0 W/m2
20:38 16.1 °C -0.6 °C 1015.5 hPa Calm     32% 0 mm 0.0 W/m2
20:47 15.3 °C -0.5 °C 1015.5 hPa Calm     34% 0 mm 0.0 W/m2
21:03 15.3 °C -0.5 °C 1015.8 hPa Calm     34% 0 mm 0.0 W/m2
21:25 15 °C -0.3 °C 1015.8 hPa Calm     35% 0 mm 0.0 W/m2
21:33 15.9 °C 0.5 °C 1015.8 hPa Calm     35% 0 mm 0.0 W/m2
21:58 17.9 °C 1 °C 1015.8 hPa Calm     32% 0 mm 0.0 W/m2
22:08 18.2 °C 1.2 °C 1015.8 hPa Calm     32% 0 mm 0.0 W/m2
22:17 18.4 °C 1 °C 1015.8 hPa Calm     31% 0 mm 0.0 W/m2
Canyon Roadhouse, Fishriver Canyon, Namibia
Compliments of Weather Underground - 2.5 mb